sensor_id;sensor_type;location;lat;lon;timestamp;P1;durP1;ratioP1;P2;durP2;ratioP2
19739;SDS011;10027;51.066;13.768;2022-12-18T00:01:45;23.67;;;8.50;;
19739;SDS011;10027;51.066;13.768;2022-12-18T00:04:18;22.57;;;8.53;;
19739;SDS011;10027;51.066;13.768;2022-12-18T00:06:46;20.57;;;8.77;;
19739;SDS011;10027;51.066;13.768;2022-12-18T00:09:13;20.50;;;7.73;;
19739;SDS011;10027;51.066;13.768;2022-12-18T00:11:41;25.30;;;8.87;;
19739;SDS011;10027;51.066;13.768;2022-12-18T00:14:08;23.80;;;9.07;;
19739;SDS011;10027;51.066;13.768;2022-12-18T00:16:36;28.63;;;9.80;;
19739;SDS011;10027;51.066;13.768;2022-12-18T00:19:03;25.57;;;8.80;;
19739;SDS011;10027;51.066;13.768;2022-12-18T00:21:31;23.53;;;9.07;;
19739;SDS011;10027;51.066;13.768;2022-12-18T00:23:59;23.67;;;8.53;;
19739;SDS011;10027;51.066;13.768;2022-12-18T00:26:27;17.70;;;7.83;;
19739;SDS011;10027;51.066;13.768;2022-12-18T00:28:55;18.33;;;7.97;;
19739;SDS011;10027;51.066;13.768;2022-12-18T00:31:24;22.70;;;8.90;;
19739;SDS011;10027;51.066;13.768;2022-12-18T00:33:56;21.27;;;8.63;;
19739;SDS011;10027;51.066;13.768;2022-12-18T00:36:25;24.80;;;8.87;;
19739;SDS011;10027;51.066;13.768;2022-12-18T00:38:55;23.43;;;8.73;;
19739;SDS011;10027;51.066;13.768;2022-12-18T00:41:23;20.47;;;8.37;;
19739;SDS011;10027;51.066;13.768;2022-12-18T00:44:09;23.13;;;8.70;;
19739;SDS011;10027;51.066;13.768;2022-12-18T00:46:37;23.30;;;9.33;;
19739;SDS011;10027;51.066;13.768;2022-12-18T00:49:05;19.10;;;7.70;;
19739;SDS011;10027;51.066;13.768;2022-12-18T00:51:33;26.27;;;9.47;;
19739;SDS011;10027;51.066;13.768;2022-12-18T00:54:00;31.93;;;9.73;;
19739;SDS011;10027;51.066;13.768;2022-12-18T00:56:27;21.57;;;8.53;;
19739;SDS011;10027;51.066;13.768;2022-12-18T00:58:54;28.07;;;9.13;;
19739;SDS011;10027;51.066;13.768;2022-12-18T01:01:21;24.47;;;8.63;;
19739;SDS011;10027;51.066;13.768;2022-12-18T01:03:49;19.80;;;7.90;;
19739;SDS011;10027;51.066;13.768;2022-12-18T01:06:16;24.23;;;9.30;;
19739;SDS011;10027;51.066;13.768;2022-12-18T01:08:43;23.57;;;8.80;;
19739;SDS011;10027;51.066;13.768;2022-12-18T01:11:11;40.73;;;10.40;;
19739;SDS011;10027;51.066;13.768;2022-12-18T01:13:39;22.93;;;9.33;;
19739;SDS011;10027;51.066;13.768;2022-12-18T01:16:07;26.13;;;9.10;;
19739;SDS011;10027;51.066;13.768;2022-12-18T01:18:35;30.23;;;9.37;;
19739;SDS011;10027;51.066;13.768;2022-12-18T01:21:06;27.20;;;9.40;;
19739;SDS011;10027;51.066;13.768;2022-12-18T01:23:33;21.00;;;8.47;;
19739;SDS011;10027;51.066;13.768;2022-12-18T01:26:04;24.77;;;8.90;;
19739;SDS011;10027;51.066;13.768;2022-12-18T01:28:31;19.00;;;7.77;;
19739;SDS011;10027;51.066;13.768;2022-12-18T01:31:08;33.77;;;10.67;;
19739;SDS011;10027;51.066;13.768;2022-12-18T01:33:35;23.97;;;9.03;;
19739;SDS011;10027;51.066;13.768;2022-12-18T01:36:03;24.57;;;8.77;;
19739;SDS011;10027;51.066;13.768;2022-12-18T01:38:30;28.83;;;9.63;;
19739;SDS011;10027;51.066;13.768;2022-12-18T01:40:58;18.30;;;8.60;;
19739;SDS011;10027;51.066;13.768;2022-12-18T01:46:27;23.83;;;8.30;;
19739;SDS011;10027;51.066;13.768;2022-12-18T01:48:59;20.13;;;8.17;;
19739;SDS011;10027;51.066;13.768;2022-12-18T01:51:27;18.17;;;8.70;;
19739;SDS011;10027;51.066;13.768;2022-12-18T01:53:57;19.97;;;8.63;;
19739;SDS011;10027;51.066;13.768;2022-12-18T01:56:25;26.13;;;8.47;;
19739;SDS011;10027;51.066;13.768;2022-12-18T01:58:56;21.37;;;7.87;;
19739;SDS011;10027;51.066;13.768;2022-12-18T02:01:25;25.97;;;8.10;;
19739;SDS011;10027;51.066;13.768;2022-12-18T02:03:53;25.97;;;8.17;;
19739;SDS011;10027;51.066;13.768;2022-12-18T02:11:17;22.67;;;8.50;;
19739;SDS011;10027;51.066;13.768;2022-12-18T02:13:50;23.27;;;8.50;;
19739;SDS011;10027;51.066;13.768;2022-12-18T02:18:47;29.77;;;8.97;;
19739;SDS011;10027;51.066;13.768;2022-12-18T02:26:37;19.07;;;7.23;;
19739;SDS011;10027;51.066;13.768;2022-12-18T02:29:07;20.53;;;7.03;;
19739;SDS011;10027;51.066;13.768;2022-12-18T02:31:40;12.20;;;5.93;;
19739;SDS011;10027;51.066;13.768;2022-12-18T02:34:08;13.37;;;6.57;;
19739;SDS011;10027;51.066;13.768;2022-12-18T02:36:37;12.10;;;5.90;;
19739;SDS011;10027;51.066;13.768;2022-12-18T02:39:05;16.13;;;6.50;;
19739;SDS011;10027;51.066;13.768;2022-12-18T02:41:34;16.17;;;7.23;;
19739;SDS011;10027;51.066;13.768;2022-12-18T02:44:06;16.13;;;6.03;;
19739;SDS011;10027;51.066;13.768;2022-12-18T02:46:35;13.07;;;6.30;;
19739;SDS011;10027;51.066;13.768;2022-12-18T02:54:41;19.50;;;6.60;;
19739;SDS011;10027;51.066;13.768;2022-12-18T02:57:16;17.07;;;6.50;;
19739;SDS011;10027;51.066;13.768;2022-12-18T02:59:49;21.97;;;6.60;;
19739;SDS011;10027;51.066;13.768;2022-12-18T03:04:47;14.20;;;6.17;;
19739;SDS011;10027;51.066;13.768;2022-12-18T03:07:18;14.80;;;6.03;;
19739;SDS011;10027;51.066;13.768;2022-12-18T03:09:48;14.63;;;6.37;;
19739;SDS011;10027;51.066;13.768;2022-12-18T03:14:50;14.73;;;6.07;;
19739;SDS011;10027;51.066;13.768;2022-12-18T03:17:19;15.53;;;5.97;;
19739;SDS011;10027;51.066;13.768;2022-12-18T03:19:49;12.90;;;5.30;;
19739;SDS011;10027;51.066;13.768;2022-12-18T03:22:16;22.10;;;7.00;;
19739;SDS011;10027;51.066;13.768;2022-12-18T03:24:44;15.10;;;6.30;;
19739;SDS011;10027;51.066;13.768;2022-12-18T03:27:14;16.97;;;6.20;;
19739;SDS011;10027;51.066;13.768;2022-12-18T03:32:20;15.70;;;5.80;;
19739;SDS011;10027;51.066;13.768;2022-12-18T03:34:50;17.17;;;6.83;;
19739;SDS011;10027;51.066;13.768;2022-12-18T03:37:18;14.40;;;5.90;;
19739;SDS011;10027;51.066;13.768;2022-12-18T03:39:45;18.70;;;7.37;;
19739;SDS011;10027;51.066;13.768;2022-12-18T03:45:26;16.33;;;5.50;;
19739;SDS011;10027;51.066;13.768;2022-12-18T03:52:28;13.33;;;5.27;;
19739;SDS011;10027;51.066;13.768;2022-12-18T03:54:57;13.93;;;6.20;;
19739;SDS011;10027;51.066;13.768;2022-12-18T03:57:26;17.80;;;5.83;;
19739;SDS011;10027;51.066;13.768;2022-12-18T03:59:56;14.67;;;5.07;;
19739;SDS011;10027;51.066;13.768;2022-12-18T04:02:24;11.77;;;5.70;;
19739;SDS011;10027;51.066;13.768;2022-12-18T04:04:52;11.70;;;5.33;;
19739;SDS011;10027;51.066;13.768;2022-12-18T04:07:20;14.17;;;5.50;;
19739;SDS011;10027;51.066;13.768;2022-12-18T04:09:48;12.83;;;5.47;;
19739;SDS011;10027;51.066;13.768;2022-12-18T04:12:16;11.40;;;5.03;;
19739;SDS011;10027;51.066;13.768;2022-12-18T04:14:43;14.53;;;5.70;;
19739;SDS011;10027;51.066;13.768;2022-12-18T04:17:11;16.67;;;6.10;;
19739;SDS011;10027;51.066;13.768;2022-12-18T04:19:38;13.33;;;5.87;;
19739;SDS011;10027;51.066;13.768;2022-12-18T04:22:06;10.73;;;5.23;;
19739;SDS011;10027;51.066;13.768;2022-12-18T04:24:33;12.00;;;5.53;;
19739;SDS011;10027;51.066;13.768;2022-12-18T04:27:00;11.90;;;5.30;;
19739;SDS011;10027;51.066;13.768;2022-12-18T04:29:27;12.87;;;4.17;;
19739;SDS011;10027;51.066;13.768;2022-12-18T04:31:54;14.03;;;5.23;;
19739;SDS011;10027;51.066;13.768;2022-12-18T04:34:22;11.83;;;4.60;;
19739;SDS011;10027;51.066;13.768;2022-12-18T04:36:49;21.43;;;5.63;;
19739;SDS011;10027;51.066;13.768;2022-12-18T04:39:19;10.50;;;5.13;;
19739;SDS011;10027;51.066;13.768;2022-12-18T04:41:46;16.03;;;5.83;;
19739;SDS011;10027;51.066;13.768;2022-12-18T04:44:13;7.90;;;4.03;;
19739;SDS011;10027;51.066;13.768;2022-12-18T04:46:40;11.83;;;5.27;;
19739;SDS011;10027;51.066;13.768;2022-12-18T04:49:07;10.73;;;4.90;;
19739;SDS011;10027;51.066;13.768;2022-12-18T04:51:37;16.57;;;5.83;;
19739;SDS011;10027;51.066;13.768;2022-12-18T04:54:04;17.63;;;5.20;;
19739;SDS011;10027;51.066;13.768;2022-12-18T04:56:31;13.07;;;5.20;;
19739;SDS011;10027;51.066;13.768;2022-12-18T04:58:58;14.03;;;5.10;;
19739;SDS011;10027;51.066;13.768;2022-12-18T05:01:25;11.17;;;5.03;;
19739;SDS011;10027;51.066;13.768;2022-12-18T05:04:00;18.93;;;5.63;;
19739;SDS011;10027;51.066;13.768;2022-12-18T05:06:27;14.00;;;4.57;;
19739;SDS011;10027;51.066;13.768;2022-12-18T05:08:54;17.80;;;4.90;;
19739;SDS011;10027;51.066;13.768;2022-12-18T05:11:21;10.97;;;4.60;;
19739;SDS011;10027;51.066;13.768;2022-12-18T05:13:48;11.13;;;5.17;;
19739;SDS011;10027;51.066;13.768;2022-12-18T05:16:15;12.07;;;4.43;;
19739;SDS011;10027;51.066;13.768;2022-12-18T05:18:42;8.60;;;4.17;;
19739;SDS011;10027;51.066;13.768;2022-12-18T05:21:10;11.93;;;5.23;;
19739;SDS011;10027;51.066;13.768;2022-12-18T05:23:37;13.30;;;4.67;;
19739;SDS011;10027;51.066;13.768;2022-12-18T05:26:05;12.23;;;4.57;;
19739;SDS011;10027;51.066;13.768;2022-12-18T05:28:34;8.33;;;4.17;;
19739;SDS011;10027;51.066;13.768;2022-12-18T05:31:02;15.73;;;4.83;;
19739;SDS011;10027;51.066;13.768;2022-12-18T05:33:31;11.23;;;4.40;;
19739;SDS011;10027;51.066;13.768;2022-12-18T05:36:02;14.40;;;4.93;;
19739;SDS011;10027;51.066;13.768;2022-12-18T05:38:30;11.63;;;5.23;;
19739;SDS011;10027;51.066;13.768;2022-12-18T05:40:58;11.43;;;4.27;;
19739;SDS011;10027;51.066;13.768;2022-12-18T05:43:25;13.93;;;4.80;;
19739;SDS011;10027;51.066;13.768;2022-12-18T05:45:53;13.03;;;4.70;;
19739;SDS011;10027;51.066;13.768;2022-12-18T05:48:20;14.07;;;4.83;;
19739;SDS011;10027;51.066;13.768;2022-12-18T05:50:48;12.93;;;5.00;;
19739;SDS011;10027;51.066;13.768;2022-12-18T05:53:17;11.03;;;4.43;;
19739;SDS011;10027;51.066;13.768;2022-12-18T05:55:45;10.20;;;4.67;;
19739;SDS011;10027;51.066;13.768;2022-12-18T05:58:13;11.47;;;4.50;;
19739;SDS011;10027;51.066;13.768;2022-12-18T06:00:42;12.67;;;4.40;;
19739;SDS011;10027;51.066;13.768;2022-12-18T06:03:10;9.50;;;3.83;;
19739;SDS011;10027;51.066;13.768;2022-12-18T06:05:39;11.17;;;4.47;;
19739;SDS011;10027;51.066;13.768;2022-12-18T06:08:06;10.33;;;4.30;;
19739;SDS011;10027;51.066;13.768;2022-12-18T06:10:33;15.43;;;5.00;;
19739;SDS011;10027;51.066;13.768;2022-12-18T06:13:01;10.10;;;4.33;;
19739;SDS011;10027;51.066;13.768;2022-12-18T06:15:28;9.73;;;4.27;;
19739;SDS011;10027;51.066;13.768;2022-12-18T06:17:55;9.83;;;4.57;;
19739;SDS011;10027;51.066;13.768;2022-12-18T06:20:22;11.83;;;5.07;;
19739;SDS011;10027;51.066;13.768;2022-12-18T06:22:55;11.77;;;4.70;;
19739;SDS011;10027;51.066;13.768;2022-12-18T06:25:22;11.43;;;4.73;;
19739;SDS011;10027;51.066;13.768;2022-12-18T06:27:50;7.83;;;3.87;;
19739;SDS011;10027;51.066;13.768;2022-12-18T06:30:17;14.27;;;5.07;;
19739;SDS011;10027;51.066;13.768;2022-12-18T06:32:44;11.67;;;4.90;;
19739;SDS011;10027;51.066;13.768;2022-12-18T06:35:13;13.57;;;4.60;;
19739;SDS011;10027;51.066;13.768;2022-12-18T06:37:40;9.77;;;4.27;;
19739;SDS011;10027;51.066;13.768;2022-12-18T06:40:08;8.97;;;4.20;;
19739;SDS011;10027;51.066;13.768;2022-12-18T06:42:35;11.17;;;4.10;;
19739;SDS011;10027;51.066;13.768;2022-12-18T06:45:02;8.97;;;3.50;;
19739;SDS011;10027;51.066;13.768;2022-12-18T06:47:29;12.57;;;3.80;;
19739;SDS011;10027;51.066;13.768;2022-12-18T06:49:56;11.80;;;4.60;;
19739;SDS011;10027;51.066;13.768;2022-12-18T06:52:23;8.53;;;4.50;;
19739;SDS011;10027;51.066;13.768;2022-12-18T06:54:50;13.13;;;4.50;;
19739;SDS011;10027;51.066;13.768;2022-12-18T06:57:17;7.93;;;3.90;;
19739;SDS011;10027;51.066;13.768;2022-12-18T06:59:44;10.97;;;4.60;;
19739;SDS011;10027;51.066;13.768;2022-12-18T07:02:12;9.27;;;4.10;;
19739;SDS011;10027;51.066;13.768;2022-12-18T07:04:39;9.30;;;4.10;;
19739;SDS011;10027;51.066;13.768;2022-12-18T07:07:06;16.57;;;5.27;;
19739;SDS011;10027;51.066;13.768;2022-12-18T07:09:33;8.93;;;4.20;;
19739;SDS011;10027;51.066;13.768;2022-12-18T07:12:00;14.47;;;4.87;;
19739;SDS011;10027;51.066;13.768;2022-12-18T07:14:27;10.07;;;4.03;;
19739;SDS011;10027;51.066;13.768;2022-12-18T07:16:55;13.63;;;5.57;;
19739;SDS011;10027;51.066;13.768;2022-12-18T07:19:22;8.83;;;4.30;;
19739;SDS011;10027;51.066;13.768;2022-12-18T07:21:49;15.87;;;4.27;;
19739;SDS011;10027;51.066;13.768;2022-12-18T07:24:17;11.20;;;4.47;;
19739;SDS011;10027;51.066;13.768;2022-12-18T07:26:47;10.27;;;4.80;;
19739;SDS011;10027;51.066;13.768;2022-12-18T07:29:14;13.47;;;4.80;;
19739;SDS011;10027;51.066;13.768;2022-12-18T07:31:41;9.17;;;4.20;;
19739;SDS011;10027;51.066;13.768;2022-12-18T07:34:12;9.33;;;4.83;;
19739;SDS011;10027;51.066;13.768;2022-12-18T07:36:39;13.33;;;5.00;;
19739;SDS011;10027;51.066;13.768;2022-12-18T07:39:06;10.60;;;4.57;;
19739;SDS011;10027;51.066;13.768;2022-12-18T07:41:34;12.93;;;4.70;;
19739;SDS011;10027;51.066;13.768;2022-12-18T07:44:01;11.57;;;4.70;;
19739;SDS011;10027;51.066;13.768;2022-12-18T07:46:28;11.70;;;4.80;;
19739;SDS011;10027;51.066;13.768;2022-12-18T07:48:55;9.17;;;4.20;;
19739;SDS011;10027;51.066;13.768;2022-12-18T07:51:22;13.03;;;4.90;;
19739;SDS011;10027;51.066;13.768;2022-12-18T07:53:49;10.23;;;4.43;;
19739;SDS011;10027;51.066;13.768;2022-12-18T07:56:17;14.53;;;5.30;;
19739;SDS011;10027;51.066;13.768;2022-12-18T07:58:56;13.83;;;4.50;;
19739;SDS011;10027;51.066;13.768;2022-12-18T08:01:23;18.57;;;5.77;;
19739;SDS011;10027;51.066;13.768;2022-12-18T08:03:51;12.67;;;5.30;;
19739;SDS011;10027;51.066;13.768;2022-12-18T08:06:18;12.43;;;4.60;;
19739;SDS011;10027;51.066;13.768;2022-12-18T08:08:50;10.30;;;5.07;;
19739;SDS011;10027;51.066;13.768;2022-12-18T08:11:17;10.17;;;5.63;;
19739;SDS011;10027;51.066;13.768;2022-12-18T08:13:44;13.17;;;4.33;;
19739;SDS011;10027;51.066;13.768;2022-12-18T08:16:12;12.10;;;5.17;;
19739;SDS011;10027;51.066;13.768;2022-12-18T08:18:39;11.90;;;5.07;;
19739;SDS011;10027;51.066;13.768;2022-12-18T08:21:09;14.93;;;4.97;;
19739;SDS011;10027;51.066;13.768;2022-12-18T08:23:37;10.77;;;4.33;;
19739;SDS011;10027;51.066;13.768;2022-12-18T08:26:08;12.33;;;5.50;;
19739;SDS011;10027;51.066;13.768;2022-12-18T08:28:36;13.77;;;5.70;;
19739;SDS011;10027;51.066;13.768;2022-12-18T08:31:03;15.53;;;5.83;;
19739;SDS011;10027;51.066;13.768;2022-12-18T08:33:30;13.27;;;5.63;;
19739;SDS011;10027;51.066;13.768;2022-12-18T08:35:58;14.20;;;5.30;;
19739;SDS011;10027;51.066;13.768;2022-12-18T08:38:25;17.63;;;5.63;;
19739;SDS011;10027;51.066;13.768;2022-12-18T08:41:02;16.37;;;6.87;;
19739;SDS011;10027;51.066;13.768;2022-12-18T08:43:30;14.73;;;5.80;;
19739;SDS011;10027;51.066;13.768;2022-12-18T08:46:15;18.07;;;5.80;;
19739;SDS011;10027;51.066;13.768;2022-12-18T08:48:43;17.73;;;6.40;;
19739;SDS011;10027;51.066;13.768;2022-12-18T08:51:10;11.63;;;5.80;;
19739;SDS011;10027;51.066;13.768;2022-12-18T08:53:37;20.40;;;6.73;;
19739;SDS011;10027;51.066;13.768;2022-12-18T08:56:05;20.83;;;6.17;;
19739;SDS011;10027;51.066;13.768;2022-12-18T08:58:32;15.43;;;6.67;;
19739;SDS011;10027;51.066;13.768;2022-12-18T09:01:00;19.37;;;6.70;;
19739;SDS011;10027;51.066;13.768;2022-12-18T09:03:28;13.90;;;6.20;;
19739;SDS011;10027;51.066;13.768;2022-12-18T09:05:55;17.97;;;6.43;;
19739;SDS011;10027;51.066;13.768;2022-12-18T09:08:23;14.63;;;6.37;;
19739;SDS011;10027;51.066;13.768;2022-12-18T09:10:50;11.73;;;6.10;;
19739;SDS011;10027;51.066;13.768;2022-12-18T09:13:17;20.23;;;7.50;;
19739;SDS011;10027;51.066;13.768;2022-12-18T09:15:45;17.00;;;7.07;;
19739;SDS011;10027;51.066;13.768;2022-12-18T09:18:13;13.47;;;6.37;;
19739;SDS011;10027;51.066;13.768;2022-12-18T09:20:40;14.63;;;6.73;;
19739;SDS011;10027;51.066;13.768;2022-12-18T09:23:08;18.17;;;7.27;;
19739;SDS011;10027;51.066;13.768;2022-12-18T09:25:36;17.30;;;6.63;;
19739;SDS011;10027;51.066;13.768;2022-12-18T09:28:04;16.57;;;7.70;;
19739;SDS011;10027;51.066;13.768;2022-12-18T09:30:31;16.70;;;6.73;;
19739;SDS011;10027;51.066;13.768;2022-12-18T09:33:00;13.10;;;6.50;;
19739;SDS011;10027;51.066;13.768;2022-12-18T09:35:27;15.90;;;6.80;;
19739;SDS011;10027;51.066;13.768;2022-12-18T09:37:55;29.40;;;8.53;;
19739;SDS011;10027;51.066;13.768;2022-12-18T09:40:23;16.27;;;6.70;;
19739;SDS011;10027;51.066;13.768;2022-12-18T09:42:53;17.37;;;7.10;;
19739;SDS011;10027;51.066;13.768;2022-12-18T09:45:21;25.63;;;7.20;;
19739;SDS011;10027;51.066;13.768;2022-12-18T09:47:49;19.47;;;6.90;;
19739;SDS011;10027;51.066;13.768;2022-12-18T09:50:28;18.40;;;6.57;;
19739;SDS011;10027;51.066;13.768;2022-12-18T09:52:57;14.60;;;5.70;;
19739;SDS011;10027;51.066;13.768;2022-12-18T09:55:28;14.07;;;5.93;;
19739;SDS011;10027;51.066;13.768;2022-12-18T09:58:06;19.57;;;7.07;;
19739;SDS011;10027;51.066;13.768;2022-12-18T10:00:34;12.97;;;6.07;;
19739;SDS011;10027;51.066;13.768;2022-12-18T10:03:09;14.10;;;6.23;;
19739;SDS011;10027;51.066;13.768;2022-12-18T10:10:47;13.70;;;6.27;;
19739;SDS011;10027;51.066;13.768;2022-12-18T10:13:23;14.67;;;5.73;;
19739;SDS011;10027;51.066;13.768;2022-12-18T10:18:31;17.47;;;6.13;;
19739;SDS011;10027;51.066;13.768;2022-12-18T10:21:04;19.00;;;6.50;;
19739;SDS011;10027;51.066;13.768;2022-12-18T10:26:10;13.73;;;5.33;;
19739;SDS011;10027;51.066;13.768;2022-12-18T10:28:40;18.43;;;6.73;;
19739;SDS011;10027;51.066;13.768;2022-12-18T10:31:16;15.60;;;6.33;;
19739;SDS011;10027;51.066;13.768;2022-12-18T10:33:43;19.00;;;6.13;;
19739;SDS011;10027;51.066;13.768;2022-12-18T10:36:11;15.10;;;6.30;;
19739;SDS011;10027;51.066;13.768;2022-12-18T10:38:38;21.23;;;7.30;;
19739;SDS011;10027;51.066;13.768;2022-12-18T10:41:27;22.83;;;6.17;;
19739;SDS011;10027;51.066;13.768;2022-12-18T10:47:02;20.93;;;6.63;;
19739;SDS011;10027;51.066;13.768;2022-12-18T10:49:37;17.50;;;6.97;;
19739;SDS011;10027;51.066;13.768;2022-12-18T10:52:07;19.33;;;6.53;;
19739;SDS011;10027;51.066;13.768;2022-12-18T10:54:38;19.20;;;6.63;;
19739;SDS011;10027;51.066;13.768;2022-12-18T10:57:15;18.97;;;7.30;;
19739;SDS011;10027;51.066;13.768;2022-12-18T10:59:53;16.47;;;6.87;;
19739;SDS011;10027;51.066;13.768;2022-12-18T11:02:26;16.27;;;6.53;;
19739;SDS011;10027;51.066;13.768;2022-12-18T11:04:53;22.70;;;6.13;;
19739;SDS011;10027;51.066;13.768;2022-12-18T11:07:20;19.90;;;7.00;;
19739;SDS011;10027;51.066;13.768;2022-12-18T11:09:59;18.97;;;7.10;;
19739;SDS011;10027;51.066;13.768;2022-12-18T11:12:27;16.10;;;6.40;;
19739;SDS011;10027;51.066;13.768;2022-12-18T11:14:55;15.97;;;6.17;;
19739;SDS011;10027;51.066;13.768;2022-12-18T11:17:33;15.23;;;6.73;;
19739;SDS011;10027;51.066;13.768;2022-12-18T11:20:03;17.27;;;5.90;;
19739;SDS011;10027;51.066;13.768;2022-12-18T11:22:31;19.43;;;7.10;;
19739;SDS011;10027;51.066;13.768;2022-12-18T11:25:16;20.67;;;7.10;;
19739;SDS011;10027;51.066;13.768;2022-12-18T11:28:02;22.50;;;6.57;;
19739;SDS011;10027;51.066;13.768;2022-12-18T11:33:08;17.57;;;6.93;;
19739;SDS011;10027;51.066;13.768;2022-12-18T11:35:52;23.17;;;7.13;;
19739;SDS011;10027;51.066;13.768;2022-12-18T11:38:22;19.57;;;6.83;;
19739;SDS011;10027;51.066;13.768;2022-12-18T11:41:00;18.43;;;7.23;;
19739;SDS011;10027;51.066;13.768;2022-12-18T11:43:33;19.60;;;7.07;;
19739;SDS011;10027;51.066;13.768;2022-12-18T11:46:04;18.73;;;6.63;;
19739;SDS011;10027;51.066;13.768;2022-12-18T11:48:41;14.77;;;5.30;;
19739;SDS011;10027;51.066;13.768;2022-12-18T11:51:11;23.83;;;7.40;;
19739;SDS011;10027;51.066;13.768;2022-12-18T11:53:39;17.07;;;5.47;;
19739;SDS011;10027;51.066;13.768;2022-12-18T12:06:36;15.63;;;6.67;;
19739;SDS011;10027;51.066;13.768;2022-12-18T12:09:14;16.17;;;5.97;;
19739;SDS011;10027;51.066;13.768;2022-12-18T12:22:13;14.70;;;6.23;;
19739;SDS011;10027;51.066;13.768;2022-12-18T12:30:07;17.07;;;6.87;;
19739;SDS011;10027;51.066;13.768;2022-12-18T12:38:08;14.47;;;5.90;;
19739;SDS011;10027;51.066;13.768;2022-12-18T12:40:39;19.33;;;6.30;;
19739;SDS011;10027;51.066;13.768;2022-12-18T12:43:22;19.20;;;6.53;;
19739;SDS011;10027;51.066;13.768;2022-12-18T12:45:58;15.83;;;5.87;;
19739;SDS011;10027;51.066;13.768;2022-12-18T12:48:31;16.13;;;5.50;;
19739;SDS011;10027;51.066;13.768;2022-12-18T12:51:04;15.90;;;6.43;;
19739;SDS011;10027;51.066;13.768;2022-12-18T12:53:36;15.93;;;6.40;;
19739;SDS011;10027;51.066;13.768;2022-12-18T12:56:06;23.27;;;6.77;;
19739;SDS011;10027;51.066;13.768;2022-12-18T13:03:45;13.37;;;5.37;;
19739;SDS011;10027;51.066;13.768;2022-12-18T13:06:34;16.63;;;6.37;;
19739;SDS011;10027;51.066;13.768;2022-12-18T13:09:09;24.33;;;6.90;;
19739;SDS011;10027;51.066;13.768;2022-12-18T13:11:38;17.93;;;7.07;;
19739;SDS011;10027;51.066;13.768;2022-12-18T13:14:33;19.70;;;5.73;;
19739;SDS011;10027;51.066;13.768;2022-12-18T13:19:49;17.77;;;6.33;;
19739;SDS011;10027;51.066;13.768;2022-12-18T13:22:21;15.10;;;6.20;;
19739;SDS011;10027;51.066;13.768;2022-12-18T13:24:49;14.50;;;6.60;;
19739;SDS011;10027;51.066;13.768;2022-12-18T13:30:15;17.63;;;6.83;;
19739;SDS011;10027;51.066;13.768;2022-12-18T13:33:19;24.23;;;7.03;;
19739;SDS011;10027;51.066;13.768;2022-12-18T13:35:40;14.33;;;5.80;;
19739;SDS011;10027;51.066;13.768;2022-12-18T13:46:41;12.77;;;5.77;;
19739;SDS011;10027;51.066;13.768;2022-12-18T13:48:36;12.47;;;5.40;;
19739;SDS011;10027;51.066;13.768;2022-12-18T13:51:05;19.40;;;5.83;;
19739;SDS011;10027;51.066;13.768;2022-12-18T13:56:04;15.93;;;5.33;;
19739;SDS011;10027;51.066;13.768;2022-12-18T13:58:32;14.43;;;5.73;;
19739;SDS011;10027;51.066;13.768;2022-12-18T14:00:59;16.80;;;5.50;;
19739;SDS011;10027;51.066;13.768;2022-12-18T14:03:28;9.57;;;4.70;;
19739;SDS011;10027;51.066;13.768;2022-12-18T14:06:01;18.50;;;5.00;;
19739;SDS011;10027;51.066;13.768;2022-12-18T14:08:32;13.07;;;5.33;;
19739;SDS011;10027;51.066;13.768;2022-12-18T14:10:59;19.37;;;5.87;;
19739;SDS011;10027;51.066;13.768;2022-12-18T14:13:29;15.23;;;5.93;;
19739;SDS011;10027;51.066;13.768;2022-12-18T14:15:58;11.13;;;5.10;;
19739;SDS011;10027;51.066;13.768;2022-12-18T14:18:31;11.70;;;4.67;;
19739;SDS011;10027;51.066;13.768;2022-12-18T14:21:00;12.13;;;5.47;;
19739;SDS011;10027;51.066;13.768;2022-12-18T14:25:55;10.20;;;4.13;;
19739;SDS011;10027;51.066;13.768;2022-12-18T14:28:30;14.53;;;5.17;;
19739;SDS011;10027;51.066;13.768;2022-12-18T14:30:57;11.00;;;4.73;;
19739;SDS011;10027;51.066;13.768;2022-12-18T14:33:25;10.77;;;5.27;;
19739;SDS011;10027;51.066;13.768;2022-12-18T14:43:23;9.17;;;4.50;;
19739;SDS011;10027;51.066;13.768;2022-12-18T14:45:50;14.70;;;5.03;;
19739;SDS011;10027;51.066;13.768;2022-12-18T14:48:19;15.63;;;5.40;;
19739;SDS011;10027;51.066;13.768;2022-12-18T14:51:23;14.93;;;5.37;;
19739;SDS011;10027;51.066;13.768;2022-12-18T14:53:44;12.80;;;4.93;;
19739;SDS011;10027;51.066;13.768;2022-12-18T14:56:20;13.13;;;5.73;;
19739;SDS011;10027;51.066;13.768;2022-12-18T14:58:51;11.87;;;4.73;;
19739;SDS011;10027;51.066;13.768;2022-12-18T15:01:22;14.20;;;5.53;;
19739;SDS011;10027;51.066;13.768;2022-12-18T15:03:51;15.07;;;4.90;;
19739;SDS011;10027;51.066;13.768;2022-12-18T15:06:32;6.57;;;2.60;;
19739;SDS011;10027;51.066;13.768;2022-12-18T15:09:00;26.40;;;5.90;;
19739;SDS011;10027;51.066;13.768;2022-12-18T15:11:29;11.40;;;5.47;;
19739;SDS011;10027;51.066;13.768;2022-12-18T15:13:58;15.07;;;5.67;;
19739;SDS011;10027;51.066;13.768;2022-12-18T15:16:26;9.70;;;4.53;;
19739;SDS011;10027;51.066;13.768;2022-12-18T15:18:54;13.63;;;5.17;;
19739;SDS011;10027;51.066;13.768;2022-12-18T15:21:21;8.90;;;4.80;;
19739;SDS011;10027;51.066;13.768;2022-12-18T15:23:49;14.73;;;5.30;;
19739;SDS011;10027;51.066;13.768;2022-12-18T15:26:18;12.37;;;5.30;;
19739;SDS011;10027;51.066;13.768;2022-12-18T15:33:43;14.73;;;4.73;;
19739;SDS011;10027;51.066;13.768;2022-12-18T15:36:12;12.07;;;5.07;;
19739;SDS011;10027;51.066;13.768;2022-12-18T15:38:40;15.40;;;5.87;;
19739;SDS011;10027;51.066;13.768;2022-12-18T15:41:13;10.40;;;4.80;;
19739;SDS011;10027;51.066;13.768;2022-12-18T15:43:48;15.60;;;5.00;;
19739;SDS011;10027;51.066;13.768;2022-12-18T15:46:16;15.53;;;5.93;;
19739;SDS011;10027;51.066;13.768;2022-12-18T15:48:45;14.53;;;5.30;;
19739;SDS011;10027;51.066;13.768;2022-12-18T15:51:16;14.53;;;5.50;;
19739;SDS011;10027;51.066;13.768;2022-12-18T15:53:44;18.17;;;5.17;;
19739;SDS011;10027;51.066;13.768;2022-12-18T15:56:11;14.63;;;5.50;;
19739;SDS011;10027;51.066;13.768;2022-12-18T15:58:58;18.47;;;5.80;;
19739;SDS011;10027;51.066;13.768;2022-12-18T16:01:27;13.37;;;4.50;;
19739;SDS011;10027;51.066;13.768;2022-12-18T16:03:54;15.23;;;5.73;;
19739;SDS011;10027;51.066;13.768;2022-12-18T16:06:22;16.10;;;6.17;;
19739;SDS011;10027;51.066;13.768;2022-12-18T16:08:49;14.73;;;4.77;;
19739;SDS011;10027;51.066;13.768;2022-12-18T16:11:26;14.43;;;5.53;;
19739;SDS011;10027;51.066;13.768;2022-12-18T16:16:37;12.03;;;4.53;;
19739;SDS011;10027;51.066;13.768;2022-12-18T16:19:04;14.97;;;5.07;;
19739;SDS011;10027;51.066;13.768;2022-12-18T16:21:31;12.63;;;5.67;;
19739;SDS011;10027;51.066;13.768;2022-12-18T16:23:59;13.27;;;4.93;;
19739;SDS011;10027;51.066;13.768;2022-12-18T16:26:26;19.73;;;5.50;;
19739;SDS011;10027;51.066;13.768;2022-12-18T16:28:54;20.50;;;6.40;;
19739;SDS011;10027;51.066;13.768;2022-12-18T16:31:21;15.03;;;4.97;;
19739;SDS011;10027;51.066;13.768;2022-12-18T16:33:48;15.10;;;5.23;;
19739;SDS011;10027;51.066;13.768;2022-12-18T16:36:15;15.80;;;5.37;;
19739;SDS011;10027;51.066;13.768;2022-12-18T16:38:42;17.03;;;5.17;;
19739;SDS011;10027;51.066;13.768;2022-12-18T16:41:19;12.97;;;5.10;;